createdAt,value
2019-04-23T00:02:53.443Z,96444.70
2019-04-23T00:05:30.183Z,96441.36
2019-04-23T00:10:27.028Z,96437.21
2019-04-23T00:12:53.084Z,96432.48
2019-04-23T00:15:28.915Z,96429.58
2019-04-23T00:18:09.725Z,96433.06
2019-04-23T00:20:39.263Z,96427.82
2019-04-23T00:23:22.506Z,96426.89
2019-04-23T00:25:51.086Z,96425.27
2019-04-23T00:28:20.564Z,96432.97
2019-04-23T00:33:25.113Z,96415.95
2019-04-23T00:35:59.696Z,96411.05
2019-04-23T00:38:36.569Z,96414.44
2019-04-23T00:41:02.917Z,96405.88
2019-04-23T00:43:32.611Z,96417.55
2019-04-23T00:45:59.664Z,96409.61
2019-04-23T00:48:45.598Z,96407.55
2019-04-23T00:51:02.189Z,96404.99
2019-04-23T00:53:40.162Z,96401.59
2019-04-23T00:56:32.415Z,96393.85
2019-04-23T00:58:52.860Z,96393.84
2019-04-23T01:01:18.283Z,96385.63
2019-04-23T01:03:55.105Z,96386.75
2019-04-23T01:08:51.768Z,96388.55
2019-04-23T01:14:08.311Z,96378.61
2019-04-23T01:16:20.948Z,96377.41
2019-04-23T01:19:24.516Z,96382.03
2019-04-23T01:21:15.840Z,96373.37
2019-04-23T01:24:02.748Z,96377.59
2019-04-23T01:27:12.159Z,96375.30
2019-04-23T01:29:32.054Z,96376.19
2019-04-23T01:31:57.343Z,96374.88
2019-04-23T01:34:38.956Z,96371.88
2019-04-23T01:37:01.083Z,96377.95
2019-04-23T01:39:39.716Z,96372.89
2019-04-23T01:42:22.867Z,96368.75
2019-04-23T01:47:19.853Z,96368.15
2019-04-23T01:49:54.004Z,96366.62
2019-04-23T01:52:24.904Z,96357.73
2019-04-23T01:54:52.254Z,96359.06
2019-04-23T01:57:22.879Z,96361.61
2019-04-23T01:59:58.432Z,96360.89
2019-04-23T02:02:27.625Z,96355.14
2019-04-23T02:05:04.152Z,96357.69
2019-04-23T02:07:38.810Z,96347.65
2019-04-23T02:10:11.626Z,96346.48
2019-04-23T02:12:42.002Z,96348.27
2019-04-23T02:15:13.804Z,96351.22
2019-04-23T02:20:21.867Z,96343.14
2019-04-23T02:23:01.371Z,96336.95
2019-04-23T02:25:44.046Z,96331.05
2019-04-23T02:28:06.120Z,96334.13
2019-04-23T02:43:16.156Z,96329.05
2019-04-23T02:45:56.960Z,96323.81
2019-04-23T02:50:47.937Z,96323.45
2019-04-23T02:53:44.834Z,96325.23
2019-04-23T02:56:15.160Z,96315.59
2019-04-23T02:58:45.979Z,96314.00
2019-04-23T03:01:15.292Z,96314.20
2019-04-23T03:03:38.298Z,96310.69
2019-04-23T03:06:10.193Z,96311.45
2019-04-23T03:08:46.653Z,96311.25
2019-04-23T03:11:18.363Z,96316.21
2019-04-23T03:13:51.044Z,96308.59
2019-04-23T03:16:29.479Z,96307.00
2019-04-23T03:19:02.939Z,96303.20
2019-04-23T03:21:51.839Z,96306.59
2019-04-23T03:27:08.085Z,96308.19
2019-04-23T03:29:35.585Z,96303.40
2019-04-23T03:35:12.324Z,96307.15
2019-04-23T03:39:40.392Z,96299.61
2019-04-23T03:41:59.640Z,96299.28
2019-04-23T03:44:45.312Z,96300.41
2019-04-23T03:47:11.461Z,96296.82
2019-04-23T03:49:43.895Z,96291.55
2019-04-23T03:57:20.324Z,96293.73
2019-04-23T04:04:44.571Z,96290.83
2019-04-23T04:07:53.539Z,96285.55
2019-04-23T04:09:51.704Z,96276.48
2019-04-23T04:15:14.323Z,96272.98
2019-04-23T04:18:06.565Z,96274.32
2019-04-23T04:20:15.217Z,96287.27
2019-04-23T04:25:17.737Z,96278.16
2019-04-23T04:27:53.790Z,96289.09
2019-04-23T04:30:20.777Z,96280.16
2019-04-23T04:32:58.711Z,96286.80
2019-04-23T04:40:33.084Z,96284.77
2019-04-23T04:43:11.290Z,96276.38
2019-04-23T04:45:47.435Z,96279.29
2019-04-23T04:47:55.634Z,96274.49
2019-04-23T04:50:24.181Z,96278.37
2019-04-23T04:55:41.230Z,96267.66
2019-04-23T05:01:01.384Z,96275.41
2019-04-23T05:03:22.258Z,96279.11
2019-04-23T05:06:05.024Z,96278.09
2019-04-23T05:08:21.690Z,96275.92
2019-04-23T05:13:41.330Z,96277.30
2019-04-23T05:15:51.539Z,96278.53
2019-04-23T05:21:07.382Z,96271.51
2019-04-23T05:26:23.925Z,96278.28
2019-04-23T05:31:27.843Z,96273.72
2019-04-23T05:34:14.921Z,96277.53
2019-04-23T05:41:36.501Z,96277.81
2019-04-23T05:44:15.746Z,96279.84
2019-04-23T05:46:43.446Z,96279.53
2019-04-23T05:54:18.969Z,96288.26
2019-04-23T05:56:54.151Z,96282.70
2019-04-23T05:59:23.064Z,96284.48
2019-04-23T06:09:30.494Z,96284.56
2019-04-23T06:12:04.482Z,96283.54
2019-04-23T06:14:40.291Z,96285.33
2019-04-23T06:17:17.786Z,96280.92
2019-04-23T06:19:33.123Z,96265.41
2019-04-23T06:25:08.542Z,96283.77
2019-04-23T06:27:22.146Z,96282.17
2019-04-23T06:30:04.530Z,96286.67
2019-04-23T06:32:29.434Z,96279.36
2019-04-23T06:34:54.690Z,96280.63
2019-04-23T06:37:39.334Z,96281.09
2019-04-23T06:40:03.192Z,96282.73
2019-04-23T06:42:37.689Z,96276.34
2019-04-23T06:45:14.538Z,96280.75
2019-04-23T06:47:37.434Z,96285.88
2019-04-23T06:50:03.582Z,96281.91
2019-04-23T06:52:41.144Z,96279.73
2019-04-23T06:55:25.442Z,96284.73
2019-04-23T06:57:48.486Z,96275.58
2019-04-23T07:00:21.051Z,96273.84
2019-04-23T07:02:54.078Z,96301.42
2019-04-23T07:05:28.061Z,96275.91
2019-04-23T07:10:30.264Z,96270.12
2019-04-23T07:13:01.260Z,96264.94
2019-04-23T07:15:40.856Z,96265.16
2019-04-23T07:18:00.668Z,96267.56
2019-04-23T07:20:30.351Z,96272.80
2019-04-23T07:23:04.894Z,96266.87
2019-04-23T07:25:50.023Z,96264.70
2019-04-23T07:28:09.436Z,96272.48
2019-04-23T07:30:33.165Z,96270.52
2019-04-23T07:33:11.853Z,96266.78
2019-04-23T07:35:45.953Z,96278.41
2019-04-23T07:38:44.236Z,96268.69
2019-04-23T07:41:23.714Z,96260.78
2019-04-23T07:46:54.760Z,96261.89
2019-04-23T07:49:15.112Z,96255.94
2019-04-23T07:52:00.792Z,96283.19
2019-04-23T07:59:41.437Z,96287.66
2019-04-23T08:02:12.857Z,96287.45
2019-04-23T08:04:42.624Z,96251.54
2019-04-23T08:07:14.619Z,96282.77
2019-04-23T08:09:51.418Z,96249.39
2019-04-23T08:12:19.198Z,96268.52
2019-04-23T08:14:49.682Z,96273.27
2019-04-23T08:17:17.542Z,96288.05
2019-04-23T08:19:54.162Z,96256.80
2019-04-23T08:25:03.298Z,96255.41
2019-04-23T08:27:42.062Z,96262.09
2019-04-23T08:30:09.852Z,96251.98
2019-04-23T08:32:49.247Z,96251.98
2019-04-23T08:35:23.236Z,96273.61
2019-04-23T08:38:07.887Z,96272.20
2019-04-23T08:40:28.456Z,96268.59
2019-04-23T08:42:52.749Z,96280.01
2019-04-23T08:48:14.252Z,96284.09
2019-04-23T08:50:44.029Z,96276.09
2019-04-23T08:53:37.398Z,96266.34
2019-04-23T08:55:49.885Z,96293.99
2019-04-23T08:58:19.071Z,96257.95
2019-04-23T09:08:27.294Z,96254.54
2019-04-23T09:11:04.670Z,96254.54
2019-04-23T09:13:50.179Z,96270.33
2019-04-23T09:21:03.474Z,96250.20
2019-04-23T09:23:40.894Z,96252.98
2019-04-23T09:26:22.144Z,96253.72
2019-04-23T09:28:45.672Z,96253.27
2019-04-23T09:32:00.532Z,96283.44
2019-04-23T09:34:17.205Z,96240.06
2019-04-23T09:39:35.745Z,96236.49
2019-04-23T09:42:32.272Z,96238.80
2019-04-23T09:47:50.762Z,96241.33
2019-04-23T09:50:15.551Z,96228.82
2019-04-23T09:53:01.434Z,96237.94
2019-04-23T09:57:51.447Z,96223.50
2019-04-23T10:00:38.083Z,96226.36
2019-04-23T10:02:44.804Z,96220.84
2019-04-23T10:05:11.154Z,96216.83
2019-04-23T10:07:46.196Z,96229.21
2019-04-23T10:10:03.801Z,96216.93
2019-04-23T10:12:35.631Z,96215.34
2019-04-23T10:15:19.939Z,96212.84
2019-04-23T10:17:44.530Z,96216.02
2019-04-23T10:20:14.058Z,96228.05
2019-04-23T10:22:44.154Z,96208.52
2019-04-23T10:25:15.296Z,96234.30
2019-04-23T10:27:45.365Z,96223.11
2019-04-23T10:30:17.739Z,96203.87
2019-04-23T10:32:47.590Z,96192.98
2019-04-23T10:35:28.595Z,96203.17
2019-04-23T10:37:56.869Z,96189.72
2019-04-23T10:40:28.154Z,96203.36
2019-04-23T10:42:56.019Z,96209.64
2019-04-23T10:45:59.338Z,96203.05
2019-04-23T10:49:00.760Z,96213.64
2019-04-23T10:52:04.925Z,96177.61
2019-04-23T10:56:44.824Z,96203.91
2019-04-23T10:59:28.774Z,96204.33
2019-04-23T11:02:17.459Z,96181.52
2019-04-23T11:04:53.707Z,96176.69
2019-04-23T11:09:53.041Z,96184.06
2019-04-23T11:12:37.213Z,96185.73
2019-04-23T11:15:13.536Z,96186.54
2019-04-23T11:17:43.176Z,96186.54
2019-04-23T11:25:15.939Z,96182.80
2019-04-23T11:30:23.549Z,96204.45
2019-04-23T11:35:23.858Z,96210.00
2019-04-23T11:38:15.933Z,96195.47
2019-04-23T11:40:21.141Z,96198.98
2019-04-23T11:45:36.758Z,96189.18
2019-04-23T11:48:14.708Z,96227.69
2019-04-23T11:51:00.573Z,96174.86
2019-04-23T11:53:10.550Z,96211.02
2019-04-23T11:55:41.204Z,96192.16
2019-04-23T11:58:07.532Z,96188.80
2019-04-23T12:00:51.117Z,96206.30
2019-04-23T12:03:03.027Z,96206.30
2019-04-23T12:06:07.844Z,96195.55
2019-04-23T12:08:41.429Z,96179.71
2019-04-23T12:11:39.508Z,96233.77
2019-04-23T12:13:56.632Z,96233.77
2019-04-23T12:16:23.904Z,96174.13
2019-04-23T12:19:25.398Z,96198.35
2019-04-23T12:21:28.227Z,96221.48
2019-04-23T12:24:09.679Z,96187.27
2019-04-23T12:26:35.790Z,96187.27
2019-04-23T12:28:57.143Z,96169.67
2019-04-23T12:31:40.106Z,96169.67
2019-04-23T12:34:09.640Z,96180.88
2019-04-23T12:36:45.597Z,96174.74
2019-04-23T12:39:27.589Z,96174.23
2019-04-23T12:42:05.772Z,96192.97
2019-04-23T12:44:30.709Z,96168.92
2019-04-23T12:49:53.392Z,96192.78
2019-04-23T12:52:12.179Z,96184.80
2019-04-23T12:54:58.832Z,96178.84
2019-04-23T12:59:44.608Z,96167.59
2019-04-23T13:02:25.730Z,96211.46
2019-04-23T13:04:54.986Z,96171.75
2019-04-23T13:07:33.497Z,96171.27
2019-04-23T13:10:10.175Z,96183.37
2019-04-23T13:12:42.938Z,96208.17
2019-04-23T13:15:10.855Z,96196.44
2019-04-23T13:17:46.416Z,96177.61
2019-04-23T13:22:48.943Z,96195.07
2019-04-23T13:25:18.115Z,96176.16
2019-04-23T13:30:35.561Z,96175.58
2019-04-23T13:32:59.066Z,96158.13
2019-04-23T13:38:08.905Z,96171.53
2019-04-23T13:40:39.343Z,96177.73
2019-04-23T13:43:12.223Z,96173.56
2019-04-23T13:45:58.942Z,96178.76
2019-04-23T13:55:54.206Z,96165.00
2019-04-23T13:58:34.130Z,96170.67
2019-04-23T14:01:09.071Z,96152.70
2019-04-23T14:06:16.548Z,96146.77
2019-04-23T14:16:34.320Z,96165.66
2019-04-23T14:26:32.600Z,96161.11
2019-04-23T14:29:19.103Z,96190.01
2019-04-23T14:31:23.101Z,96158.75
2019-04-23T14:36:37.693Z,96162.22
2019-04-23T14:39:05.988Z,96162.22
2019-04-23T14:41:32.050Z,96173.38
2019-04-23T14:44:25.279Z,96166.94
2019-04-23T14:47:03.489Z,96166.94
2019-04-23T14:49:40.854Z,96168.67
2019-04-23T14:52:09.315Z,96171.34
2019-04-23T14:55:17.728Z,96198.77
2019-04-23T14:59:37.727Z,96181.06
2019-04-23T15:02:19.495Z,96181.06
2019-04-23T15:04:54.510Z,96250.45
2019-04-23T15:07:31.240Z,96187.69
2019-04-23T15:17:41.281Z,96215.73
2019-04-23T15:20:17.205Z,96201.32
2019-04-23T15:23:05.114Z,96197.14
2019-04-23T15:30:20.773Z,96200.77
2019-04-23T15:33:09.791Z,96190.55
2019-04-23T15:35:47.818Z,96205.12
2019-04-23T15:38:26.843Z,96201.26
2019-04-23T15:40:42.078Z,96203.88
2019-04-23T15:45:53.866Z,96231.63
2019-04-23T15:51:01.461Z,96202.02
2019-04-23T15:53:14.325Z,96190.31
2019-04-23T15:56:09.111Z,96204.09
2019-04-23T16:01:15.414Z,96189.66
2019-04-23T16:03:14.574Z,96194.85
2019-04-23T16:05:44.774Z,96209.52
2019-04-23T16:08:55.554Z,96219.56
2019-04-23T16:11:29.625Z,96206.75
2019-04-23T16:14:04.335Z,96201.34
2019-04-23T16:16:28.638Z,96195.39
2019-04-23T16:19:07.731Z,96203.38
2019-04-23T16:21:47.984Z,96226.16
2019-04-23T16:24:13.570Z,96212.84
2019-04-23T16:29:27.498Z,96221.79
2019-04-23T16:31:46.810Z,96236.95
2019-04-23T16:34:23.957Z,96234.47
2019-04-23T16:36:54.901Z,96234.77
2019-04-23T16:39:21.574Z,96247.53
2019-04-23T16:42:01.801Z,96240.02
2019-04-23T16:44:38.330Z,96238.55
2019-04-23T16:47:12.847Z,96261.67
2019-04-23T16:49:33.025Z,96282.18
2019-04-23T16:52:07.913Z,96262.06
2019-04-23T16:54:42.244Z,96257.69
2019-04-23T16:57:21.524Z,96277.64
2019-04-23T17:00:01.384Z,96262.23
2019-04-23T17:02:16.050Z,96257.28
2019-04-23T17:04:47.263Z,96249.95
2019-04-23T17:07:29.929Z,96256.39
2019-04-23T17:10:00.682Z,96272.20
2019-04-23T17:12:17.616Z,96251.13
2019-04-23T17:14:57.631Z,96254.48
2019-04-23T17:17:18.415Z,96260.02
2019-04-23T17:22:31.304Z,96269.70
2019-04-23T17:25:15.212Z,96302.45
2019-04-23T17:30:26.295Z,96256.05
2019-04-23T17:33:07.768Z,96264.72
2019-04-23T17:35:40.204Z,96269.06
2019-04-23T17:38:27.921Z,96273.97
2019-04-23T17:40:50.158Z,96283.30
2019-04-23T17:43:26.898Z,96292.56
2019-04-23T17:45:46.584Z,96293.28
2019-04-23T17:48:20.404Z,96268.98
2019-04-23T17:51:05.695Z,96282.25
2019-04-23T17:53:32.748Z,96281.44
2019-04-23T17:56:26.657Z,96279.86
2019-04-23T17:58:52.258Z,96285.25
2019-04-23T18:03:50.465Z,96301.11
2019-04-23T18:06:34.697Z,96307.61
2019-04-23T18:08:49.429Z,96283.78
2019-04-23T18:13:57.084Z,96288.56
2019-04-23T18:21:44.098Z,96290.11
2019-04-23T18:24:27.336Z,96289.08
2019-04-23T18:26:51.629Z,96292.38
2019-04-23T18:32:16.181Z,96290.91
2019-04-23T18:35:07.180Z,96305.84
2019-04-23T18:37:24.617Z,96289.45
2019-04-23T18:39:48.478Z,96292.44
2019-04-23T18:44:55.861Z,96329.32
2019-04-23T18:47:37.074Z,96300.16
2019-04-23T18:50:02.039Z,96308.15
2019-04-23T18:52:41.200Z,96293.44
2019-04-23T18:55:04.097Z,96313.88
2019-04-23T18:57:44.387Z,96305.40
2019-04-23T19:00:39.502Z,96306.78
2019-04-23T19:02:58.454Z,96308.12
2019-04-23T19:05:34.581Z,96309.95
2019-04-23T19:08:23.467Z,96303.82
2019-04-23T19:11:02.048Z,96303.27
2019-04-23T19:13:39.849Z,96315.29
2019-04-23T19:15:52.685Z,96311.75
2019-04-23T19:18:36.421Z,96313.33
2019-04-23T19:21:13.767Z,96310.13
2019-04-23T19:26:27.368Z,96306.14
2019-04-23T19:28:56.141Z,96313.31
2019-04-23T19:31:26.385Z,96297.05
2019-04-23T19:34:14.480Z,96310.90
2019-04-23T19:36:49.223Z,96313.95
2019-04-23T19:39:17.634Z,96326.47
2019-04-23T19:41:56.623Z,96309.59
2019-04-23T19:44:20.078Z,96329.78
2019-04-23T19:46:54.837Z,96328.89
2019-04-23T19:56:58.310Z,96329.78
2019-04-23T19:59:39.639Z,96334.07
2019-04-23T20:02:00.201Z,96322.65
2019-04-23T20:04:42.382Z,96329.03
2019-04-23T20:09:51.728Z,96331.88
2019-04-23T20:12:29.344Z,96318.64
2019-04-23T20:14:52.138Z,96339.22
2019-04-23T20:19:48.161Z,96329.64
2019-04-23T20:30:21.309Z,96328.42
2019-04-23T20:35:15.594Z,96329.72
2019-04-23T20:38:17.277Z,96340.18
2019-04-23T20:40:31.441Z,96350.72
2019-04-23T20:42:52.602Z,96328.16
2019-04-23T20:45:36.131Z,96329.85
2019-04-23T20:47:57.780Z,96326.69
2019-04-23T20:50:26.187Z,96320.19
2019-04-23T20:52:59.995Z,96346.45
2019-04-23T20:55:47.896Z,96363.25
2019-04-23T20:58:13.877Z,96332.30
2019-04-23T21:00:59.104Z,96330.06
2019-04-23T21:03:39.119Z,96336.30
2019-04-23T21:06:04.320Z,96343.66
2019-04-23T21:09:00.736Z,96336.16
2019-04-23T21:10:58.245Z,96348.02
2019-04-23T21:16:08.532Z,96341.77
2019-04-23T21:18:44.883Z,96346.12
2019-04-23T21:23:51.092Z,96351.81
2019-04-23T21:26:08.389Z,96347.38
2019-04-23T21:28:54.242Z,96342.47
2019-04-23T21:31:19.499Z,96325.94
2019-04-23T21:34:05.980Z,96334.62
2019-04-23T21:39:12.154Z,96348.77
2019-04-23T21:41:52.483Z,96337.16
2019-04-23T21:44:11.817Z,96337.25
2019-04-23T21:51:53.804Z,96352.22
2019-04-23T21:54:20.827Z,96335.87
2019-04-23T21:56:54.134Z,96351.66
2019-04-23T21:59:27.557Z,96353.69
2019-04-23T22:02:09.197Z,96341.70
2019-04-23T22:04:43.017Z,96334.17
2019-04-23T22:07:07.032Z,96344.84
2019-04-23T22:09:46.077Z,96350.96
2019-04-23T22:12:19.603Z,96347.37
2019-04-23T22:14:57.862Z,96348.25
2019-04-23T22:17:18.357Z,96351.84
2019-04-23T22:22:28.705Z,96343.95
2019-04-23T22:24:54.565Z,96339.59
2019-04-23T22:27:27.729Z,96346.59
2019-04-23T22:29:49.203Z,96355.08
2019-04-23T22:32:33.947Z,96353.41
2019-04-23T22:35:00.498Z,96346.59
2019-04-23T22:37:29.965Z,96361.63
2019-04-23T22:40:04.814Z,96348.48
2019-04-23T22:43:07.361Z,96374.89
2019-04-23T22:45:08.927Z,96362.56
2019-04-23T22:47:47.865Z,96363.98
2019-04-23T22:50:14.414Z,96366.16
2019-04-23T22:52:48.532Z,96365.03
2019-04-23T22:55:15.600Z,96373.14
2019-04-23T23:00:16.413Z,96362.91
2019-04-23T23:03:06.908Z,96374.43
2019-04-23T23:08:11.407Z,96373.45
2019-04-23T23:10:36.662Z,96365.81
2019-04-23T23:15:49.256Z,96370.61
2019-04-23T23:18:19.653Z,96364.38
2019-04-23T23:20:57.487Z,96365.87
2019-04-23T23:23:21.502Z,96372.97
2019-04-23T23:25:54.182Z,96363.64
2019-04-23T23:33:43.019Z,96372.98
2019-04-23T23:36:38.752Z,96368.93
2019-04-23T23:38:51.067Z,96369.64
2019-04-23T23:41:19.151Z,96373.55
2019-04-23T23:49:03.302Z,96364.22
2019-04-23T23:51:30.853Z,96383.95
2019-04-23T23:54:03.462Z,96368.44
2019-04-23T23:56:30.429Z,96375.89
2019-04-23T23:59:04.005Z,96373.61
